sensor_id;sensor_type;location;lat;lon;timestamp;temperature;humidity
14119;DHT22;7138;49.246;9.100;2024-01-15T00:00:51;-3.20;99.90
14119;DHT22;7138;49.246;9.100;2024-01-15T00:03:16;-3.20;99.90
14119;DHT22;7138;49.246;9.100;2024-01-15T00:05:42;-3.20;99.90
14119;DHT22;7138;49.246;9.100;2024-01-15T00:08:08;-3.20;99.90
14119;DHT22;7138;49.246;9.100;2024-01-15T00:10:34;-3.20;99.90
14119;DHT22;7138;49.246;9.100;2024-01-15T00:13:00;-3.10;99.90
14119;DHT22;7138;49.246;9.100;2024-01-15T00:15:27;-3.10;99.90
14119;DHT22;7138;49.246;9.100;2024-01-15T00:17:54;-3.10;99.90
14119;DHT22;7138;49.246;9.100;2024-01-15T00:20:19;-3.00;99.90
14119;DHT22;7138;49.246;9.100;2024-01-15T00:22:45;-3.10;99.90
14119;DHT22;7138;49.246;9.100;2024-01-15T00:25:11;-3.00;99.90
14119;DHT22;7138;49.246;9.100;2024-01-15T00:27:37;-3.00;99.90
14119;DHT22;7138;49.246;9.100;2024-01-15T00:30:03;-3.00;99.90
14119;DHT22;7138;49.246;9.100;2024-01-15T00:32:31;-3.00;99.90
14119;DHT22;7138;49.246;9.100;2024-01-15T00:34:57;-3.00;99.90
14119;DHT22;7138;49.246;9.100;2024-01-15T00:37:23;-3.00;99.90
14119;DHT22;7138;49.246;9.100;2024-01-15T00:39:48;-3.00;99.90
14119;DHT22;7138;49.246;9.100;2024-01-15T00:42:15;-3.00;99.90
14119;DHT22;7138;49.246;9.100;2024-01-15T00:44:42;-3.00;99.90
14119;DHT22;7138;49.246;9.100;2024-01-15T00:47:08;-3.00;99.90
14119;DHT22;7138;49.246;9.100;2024-01-15T00:49:35;-3.00;99.90
14119;DHT22;7138;49.246;9.100;2024-01-15T00:52:01;-3.00;99.90
14119;DHT22;7138;49.246;9.100;2024-01-15T00:54:27;-3.00;99.90
14119;DHT22;7138;49.246;9.100;2024-01-15T00:56:52;-3.00;99.90
14119;DHT22;7138;49.246;9.100;2024-01-15T00:59:18;-3.00;99.90
14119;DHT22;7138;49.246;9.100;2024-01-15T01:01:46;-2.90;99.90
14119;DHT22;7138;49.246;9.100;2024-01-15T01:04:12;-3.00;99.90
14119;DHT22;7138;49.246;9.100;2024-01-15T01:06:39;-2.90;99.90
14119;DHT22;7138;49.246;9.100;2024-01-15T01:09:05;-2.90;99.90
14119;DHT22;7138;49.246;9.100;2024-01-15T01:11:31;-2.90;99.90
14119;DHT22;7138;49.246;9.100;2024-01-15T01:13:57;-2.90;99.90
14119;DHT22;7138;49.246;9.100;2024-01-15T01:16:23;-2.90;99.90
14119;DHT22;7138;49.246;9.100;2024-01-15T01:18:48;-2.90;99.90
14119;DHT22;7138;49.246;9.100;2024-01-15T01:21:14;-2.90;99.90
14119;DHT22;7138;49.246;9.100;2024-01-15T01:23:42;-2.80;99.90
14119;DHT22;7138;49.246;9.100;2024-01-15T01:26:07;-2.90;99.90
14119;DHT22;7138;49.246;9.100;2024-01-15T01:28:33;-2.80;99.90
14119;DHT22;7138;49.246;9.100;2024-01-15T01:30:59;-2.80;99.90
14119;DHT22;7138;49.246;9.100;2024-01-15T01:33:25;-2.80;99.90
14119;DHT22;7138;49.246;9.100;2024-01-15T01:35:51;-2.80;99.90
14119;DHT22;7138;49.246;9.100;2024-01-15T01:38:17;-2.80;99.90
14119;DHT22;7138;49.246;9.100;2024-01-15T01:40:44;-2.80;99.90
14119;DHT22;7138;49.246;9.100;2024-01-15T01:43:10;-2.80;99.90
14119;DHT22;7138;49.246;9.100;2024-01-15T01:45:35;-2.80;99.90
14119;DHT22;7138;49.246;9.100;2024-01-15T01:48:01;-2.80;99.90
14119;DHT22;7138;49.246;9.100;2024-01-15T01:50:29;-2.80;99.90
14119;DHT22;7138;49.246;9.100;2024-01-15T01:52:57;-2.80;99.90
14119;DHT22;7138;49.246;9.100;2024-01-15T01:55:25;-2.90;99.90
14119;DHT22;7138;49.246;9.100;2024-01-15T01:57:54;-2.80;99.90
14119;DHT22;7138;49.246;9.100;2024-01-15T02:00:21;-2.80;99.90
14119;DHT22;7138;49.246;9.100;2024-01-15T02:02:48;-2.90;99.90
14119;DHT22;7138;49.246;9.100;2024-01-15T02:05:14;-2.90;99.90
14119;DHT22;7138;49.246;9.100;2024-01-15T02:07:44;-2.90;99.90
14119;DHT22;7138;49.246;9.100;2024-01-15T02:10:10;-2.90;99.90
14119;DHT22;7138;49.246;9.100;2024-01-15T02:12:36;-2.80;99.90
14119;DHT22;7138;49.246;9.100;2024-01-15T02:15:03;-2.80;99.90
14119;DHT22;7138;49.246;9.100;2024-01-15T02:17:29;-2.80;99.90
14119;DHT22;7138;49.246;9.100;2024-01-15T02:19:55;-2.80;99.90
14119;DHT22;7138;49.246;9.100;2024-01-15T02:22:21;-2.90;99.90
14119;DHT22;7138;49.246;9.100;2024-01-15T02:24:48;-2.80;99.90
14119;DHT22;7138;49.246;9.100;2024-01-15T02:27:14;-2.80;99.90
14119;DHT22;7138;49.246;9.100;2024-01-15T02:29:40;-2.90;99.90
14119;DHT22;7138;49.246;9.100;2024-01-15T02:32:08;-2.80;99.90
14119;DHT22;7138;49.246;9.100;2024-01-15T02:34:34;-2.80;99.90
14119;DHT22;7138;49.246;9.100;2024-01-15T02:37:00;-2.90;99.90
14119;DHT22;7138;49.246;9.100;2024-01-15T02:39:26;-2.80;99.90
14119;DHT22;7138;49.246;9.100;2024-01-15T02:41:55;-2.80;99.90
14119;DHT22;7138;49.246;9.100;2024-01-15T02:44:23;-2.80;99.90
14119;DHT22;7138;49.246;9.100;2024-01-15T02:46:49;-2.80;99.90
14119;DHT22;7138;49.246;9.100;2024-01-15T02:49:14;-2.80;99.90
14119;DHT22;7138;49.246;9.100;2024-01-15T02:51:41;-2.80;99.90
14119;DHT22;7138;49.246;9.100;2024-01-15T02:54:07;-2.80;99.90
14119;DHT22;7138;49.246;9.100;2024-01-15T02:56:32;-2.70;99.90
14119;DHT22;7138;49.246;9.100;2024-01-15T02:59:00;-2.70;99.90
14119;DHT22;7138;49.246;9.100;2024-01-15T03:01:25;-2.70;99.90
14119;DHT22;7138;49.246;9.100;2024-01-15T03:03:51;-2.80;99.90
14119;DHT22;7138;49.246;9.100;2024-01-15T03:06:17;-2.70;99.90
14119;DHT22;7138;49.246;9.100;2024-01-15T03:08:43;-2.70;99.90
14119;DHT22;7138;49.246;9.100;2024-01-15T03:11:08;-2.70;99.90
14119;DHT22;7138;49.246;9.100;2024-01-15T03:13:36;-2.70;99.90
14119;DHT22;7138;49.246;9.100;2024-01-15T03:16:04;-2.80;99.90
14119;DHT22;7138;49.246;9.100;2024-01-15T03:18:30;-2.70;99.90
14119;DHT22;7138;49.246;9.100;2024-01-15T03:20:56;-2.70;99.90
14119;DHT22;7138;49.246;9.100;2024-01-15T03:23:21;-2.70;99.90
14119;DHT22;7138;49.246;9.100;2024-01-15T03:25:47;-2.70;99.90
14119;DHT22;7138;49.246;9.100;2024-01-15T03:28:13;-2.70;99.90
14119;DHT22;7138;49.246;9.100;2024-01-15T03:30:39;-2.70;99.90
14119;DHT22;7138;49.246;9.100;2024-01-15T03:33:06;-2.70;99.90
14119;DHT22;7138;49.246;9.100;2024-01-15T03:35:32;-2.70;99.90
14119;DHT22;7138;49.246;9.100;2024-01-15T03:37:57;-2.70;99.90
14119;DHT22;7138;49.246;9.100;2024-01-15T03:40:23;-2.70;99.90
14119;DHT22;7138;49.246;9.100;2024-01-15T03:42:49;-2.70;99.90
14119;DHT22;7138;49.246;9.100;2024-01-15T03:45:15;-2.70;99.90
14119;DHT22;7138;49.246;9.100;2024-01-15T03:47:41;-2.70;99.90
14119;DHT22;7138;49.246;9.100;2024-01-15T03:50:09;-2.70;99.90
14119;DHT22;7138;49.246;9.100;2024-01-15T03:52:35;-2.70;99.90
14119;DHT22;7138;49.246;9.100;2024-01-15T03:55:00;-2.70;99.90
14119;DHT22;7138;49.246;9.100;2024-01-15T03:57:26;-2.70;99.90
14119;DHT22;7138;49.246;9.100;2024-01-15T03:59:52;-2.70;99.90
14119;DHT22;7138;49.246;9.100;2024-01-15T04:02:18;-2.70;99.90
14119;DHT22;7138;49.246;9.100;2024-01-15T04:04:44;-2.70;99.90
14119;DHT22;7138;49.246;9.100;2024-01-15T04:07:11;-2.70;99.90
14119;DHT22;7138;49.246;9.100;2024-01-15T04:09:37;-2.70;99.90
14119;DHT22;7138;49.246;9.100;2024-01-15T04:12:04;-2.70;99.90
14119;DHT22;7138;49.246;9.100;2024-01-15T04:14:30;-2.70;99.90
14119;DHT22;7138;49.246;9.100;2024-01-15T04:16:56;-2.70;99.90
14119;DHT22;7138;49.246;9.100;2024-01-15T04:19:22;-2.70;99.90
14119;DHT22;7138;49.246;9.100;2024-01-15T04:21:48;-2.70;99.90
14119;DHT22;7138;49.246;9.100;2024-01-15T04:24:15;-2.70;99.90
14119;DHT22;7138;49.246;9.100;2024-01-15T04:26:43;-2.70;99.90
14119;DHT22;7138;49.246;9.100;2024-01-15T04:29:09;-2.70;99.90
14119;DHT22;7138;49.246;9.100;2024-01-15T04:31:35;-2.70;99.90
14119;DHT22;7138;49.246;9.100;2024-01-15T04:34:00;-2.70;99.90
14119;DHT22;7138;49.246;9.100;2024-01-15T04:36:26;-2.70;99.90
14119;DHT22;7138;49.246;9.100;2024-01-15T04:38:52;-2.70;99.90
14119;DHT22;7138;49.246;9.100;2024-01-15T04:41:19;-2.70;99.90
14119;DHT22;7138;49.246;9.100;2024-01-15T04:43:45;-2.70;99.90
14119;DHT22;7138;49.246;9.100;2024-01-15T04:46:11;-2.70;99.90
14119;DHT22;7138;49.246;9.100;2024-01-15T04:48:37;-2.60;99.90
14119;DHT22;7138;49.246;9.100;2024-01-15T04:51:04;-2.70;99.90
14119;DHT22;7138;49.246;9.100;2024-01-15T04:53:31;-2.60;99.90
14119;DHT22;7138;49.246;9.100;2024-01-15T04:55:57;-2.60;99.90
14119;DHT22;7138;49.246;9.100;2024-01-15T04:58:24;-2.60;99.90
14119;DHT22;7138;49.246;9.100;2024-01-15T05:00:52;-2.60;99.90
14119;DHT22;7138;49.246;9.100;2024-01-15T05:03:18;-2.60;99.90
14119;DHT22;7138;49.246;9.100;2024-01-15T05:05:43;-2.60;99.90
14119;DHT22;7138;49.246;9.100;2024-01-15T05:08:09;-2.60;99.90
14119;DHT22;7138;49.246;9.100;2024-01-15T05:10:35;-2.50;99.90
14119;DHT22;7138;49.246;9.100;2024-01-15T05:13:01;-2.50;99.90
14119;DHT22;7138;49.246;9.100;2024-01-15T05:15:28;-2.50;99.90
14119;DHT22;7138;49.246;9.100;2024-01-15T05:17:55;-2.50;99.90
14119;DHT22;7138;49.246;9.100;2024-01-15T05:20:20;-2.50;99.90
14119;DHT22;7138;49.246;9.100;2024-01-15T05:22:47;-2.50;99.90
14119;DHT22;7138;49.246;9.100;2024-01-15T05:25:13;-2.50;99.90
14119;DHT22;7138;49.246;9.100;2024-01-15T05:27:39;-2.50;99.90
14119;DHT22;7138;49.246;9.100;2024-01-15T05:30:05;-2.40;99.90
14119;DHT22;7138;49.246;9.100;2024-01-15T05:32:33;-2.40;99.90
14119;DHT22;7138;49.246;9.100;2024-01-15T05:34:59;-2.40;99.90
14119;DHT22;7138;49.246;9.100;2024-01-15T05:37:24;-2.40;99.90
14119;DHT22;7138;49.246;9.100;2024-01-15T05:39:50;-2.40;99.90
14119;DHT22;7138;49.246;9.100;2024-01-15T05:42:16;-2.40;99.90
14119;DHT22;7138;49.246;9.100;2024-01-15T05:44:42;-2.40;99.90
14119;DHT22;7138;49.246;9.100;2024-01-15T05:47:07;-2.40;99.90
14119;DHT22;7138;49.246;9.100;2024-01-15T05:49:35;-2.40;99.90
14119;DHT22;7138;49.246;9.100;2024-01-15T05:52:01;-2.40;99.90
14119;DHT22;7138;49.246;9.100;2024-01-15T05:54:27;-2.40;99.90
14119;DHT22;7138;49.246;9.100;2024-01-15T05:56:53;-2.40;99.90
14119;DHT22;7138;49.246;9.100;2024-01-15T05:59:19;-2.40;99.90
14119;DHT22;7138;49.246;9.100;2024-01-15T06:01:44;-2.40;99.90
14119;DHT22;7138;49.246;9.100;2024-01-15T06:04:10;-2.30;99.90
14119;DHT22;7138;49.246;9.100;2024-01-15T06:06:37;-2.30;99.90
14119;DHT22;7138;49.246;9.100;2024-01-15T06:09:03;-2.30;99.90
14119;DHT22;7138;49.246;9.100;2024-01-15T06:11:31;-2.30;99.90
14119;DHT22;7138;49.246;9.100;2024-01-15T06:13:57;-2.30;99.90
14119;DHT22;7138;49.246;9.100;2024-01-15T06:16:24;-2.30;99.90
14119;DHT22;7138;49.246;9.100;2024-01-15T06:18:50;-2.30;99.90
14119;DHT22;7138;49.246;9.100;2024-01-15T06:21:16;-2.30;99.90
14119;DHT22;7138;49.246;9.100;2024-01-15T06:23:43;-2.20;99.90
14119;DHT22;7138;49.246;9.100;2024-01-15T06:26:11;-2.30;99.90
14119;DHT22;7138;49.246;9.100;2024-01-15T06:28:37;-2.20;99.90
14119;DHT22;7138;49.246;9.100;2024-01-15T06:31:03;-2.20;99.90
14119;DHT22;7138;49.246;9.100;2024-01-15T06:33:29;-2.20;99.90
14119;DHT22;7138;49.246;9.100;2024-01-15T06:35:55;-2.20;99.90
14119;DHT22;7138;49.246;9.100;2024-01-15T06:38:21;-2.20;99.90
14119;DHT22;7138;49.246;9.100;2024-01-15T06:40:50;-2.20;99.90
14119;DHT22;7138;49.246;9.100;2024-01-15T06:43:17;-2.20;99.90
14119;DHT22;7138;49.246;9.100;2024-01-15T06:45:43;-2.10;99.90
14119;DHT22;7138;49.246;9.100;2024-01-15T06:48:09;-2.10;99.90
14119;DHT22;7138;49.246;9.100;2024-01-15T06:50:35;-2.10;99.90
14119;DHT22;7138;49.246;9.100;2024-01-15T06:53:01;-2.10;99.90
14119;DHT22;7138;49.246;9.100;2024-01-15T06:55:27;-2.10;99.90
14119;DHT22;7138;49.246;9.100;2024-01-15T06:57:55;-2.10;99.90
14119;DHT22;7138;49.246;9.100;2024-01-15T07:00:20;-2.10;99.90
14119;DHT22;7138;49.246;9.100;2024-01-15T07:02:46;-2.10;99.90
14119;DHT22;7138;49.246;9.100;2024-01-15T07:05:12;-2.00;99.90
14119;DHT22;7138;49.246;9.100;2024-01-15T07:07:38;-2.00;99.90
14119;DHT22;7138;49.246;9.100;2024-01-15T07:10:05;-2.00;99.90
14119;DHT22;7138;49.246;9.100;2024-01-15T07:12:31;-2.00;99.90
14119;DHT22;7138;49.246;9.100;2024-01-15T07:14:59;-2.00;99.90
14119;DHT22;7138;49.246;9.100;2024-01-15T07:17:25;-1.90;99.90
14119;DHT22;7138;49.246;9.100;2024-01-15T07:19:51;-1.90;99.90
14119;DHT22;7138;49.246;9.100;2024-01-15T07:22:17;-1.90;99.90
14119;DHT22;7138;49.246;9.100;2024-01-15T07:24:43;-1.90;99.90
14119;DHT22;7138;49.246;9.100;2024-01-15T07:27:09;-1.90;99.90
14119;DHT22;7138;49.246;9.100;2024-01-15T07:29:35;-1.90;99.90
14119;DHT22;7138;49.246;9.100;2024-01-15T07:32:05;-1.90;99.90
14119;DHT22;7138;49.246;9.100;2024-01-15T07:34:33;-1.90;99.90
14119;DHT22;7138;49.246;9.100;2024-01-15T07:36:58;-1.80;99.90
14119;DHT22;7138;49.246;9.100;2024-01-15T07:39:24;-1.80;99.90
14119;DHT22;7138;49.246;9.100;2024-01-15T07:41:50;-1.80;99.90
14119;DHT22;7138;49.246;9.100;2024-01-15T07:44:16;-1.80;99.90
14119;DHT22;7138;49.246;9.100;2024-01-15T07:46:44;-1.80;99.90
14119;DHT22;7138;49.246;9.100;2024-01-15T07:49:12;-1.80;99.90
14119;DHT22;7138;49.246;9.100;2024-01-15T07:51:38;-1.80;99.90
14119;DHT22;7138;49.246;9.100;2024-01-15T07:54:06;-1.80;99.90
14119;DHT22;7138;49.246;9.100;2024-01-15T07:56:32;-1.80;99.90
14119;DHT22;7138;49.246;9.100;2024-01-15T07:58:59;-1.70;99.90
14119;DHT22;7138;49.246;9.100;2024-01-15T08:01:24;-1.80;99.90
14119;DHT22;7138;49.246;9.100;2024-01-15T08:03:50;-1.80;99.90
14119;DHT22;7138;49.246;9.100;2024-01-15T08:06:19;-1.80;99.90
14119;DHT22;7138;49.246;9.100;2024-01-15T08:08:44;-1.70;99.90
14119;DHT22;7138;49.246;9.100;2024-01-15T08:11:10;-1.70;99.90
14119;DHT22;7138;49.246;9.100;2024-01-15T08:13:36;-1.60;99.90
14119;DHT22;7138;49.246;9.100;2024-01-15T08:16:02;-1.60;99.90
14119;DHT22;7138;49.246;9.100;2024-01-15T08:18:28;-1.60;99.90
14119;DHT22;7138;49.246;9.100;2024-01-15T08:20:54;-1.60;99.90
14119;DHT22;7138;49.246;9.100;2024-01-15T08:23:21;-1.60;99.90
14119;DHT22;7138;49.246;9.100;2024-01-15T08:25:47;-1.60;99.90
14119;DHT22;7138;49.246;9.100;2024-01-15T08:28:13;-1.60;99.90
14119;DHT22;7138;49.246;9.100;2024-01-15T08:30:39;-1.60;99.90
14119;DHT22;7138;49.246;9.100;2024-01-15T08:33:04;-1.60;99.90
14119;DHT22;7138;49.246;9.100;2024-01-15T08:35:30;-1.60;99.90
14119;DHT22;7138;49.246;9.100;2024-01-15T08:37:56;-1.60;99.90
14119;DHT22;7138;49.246;9.100;2024-01-15T08:40:25;-1.60;99.90
14119;DHT22;7138;49.246;9.100;2024-01-15T08:42:51;-1.60;99.90
14119;DHT22;7138;49.246;9.100;2024-01-15T08:45:17;-1.60;99.90
14119;DHT22;7138;49.246;9.100;2024-01-15T08:47:42;-1.60;99.90
14119;DHT22;7138;49.246;9.100;2024-01-15T08:50:08;-1.70;99.90
14119;DHT22;7138;49.246;9.100;2024-01-15T08:52:37;-1.70;99.90
14119;DHT22;7138;49.246;9.100;2024-01-15T08:55:03;-1.70;99.90
14119;DHT22;7138;49.246;9.100;2024-01-15T08:57:31;-1.70;99.90
14119;DHT22;7138;49.246;9.100;2024-01-15T08:59:57;-1.70;99.90
14119;DHT22;7138;49.246;9.100;2024-01-15T09:02:24;-1.70;99.90
14119;DHT22;7138;49.246;9.100;2024-01-15T09:04:49;-1.70;99.90
14119;DHT22;7138;49.246;9.100;2024-01-15T09:07:15;-1.70;99.90
14119;DHT22;7138;49.246;9.100;2024-01-15T09:09:41;-1.60;99.90
14119;DHT22;7138;49.246;9.100;2024-01-15T09:12:08;-1.60;99.90
14119;DHT22;7138;49.246;9.100;2024-01-15T09:14:35;-1.60;99.90
14119;DHT22;7138;49.246;9.100;2024-01-15T09:17:01;-1.60;99.90
14119;DHT22;7138;49.246;9.100;2024-01-15T09:19:29;-1.60;99.90
14119;DHT22;7138;49.246;9.100;2024-01-15T09:21:54;-1.60;99.90
14119;DHT22;7138;49.246;9.100;2024-01-15T09:24:20;-1.40;99.90
14119;DHT22;7138;49.246;9.100;2024-01-15T09:26:46;-1.40;99.90
14119;DHT22;7138;49.246;9.100;2024-01-15T09:29:12;-1.40;99.90
14119;DHT22;7138;49.246;9.100;2024-01-15T09:31:42;-1.40;99.90
14119;DHT22;7138;49.246;9.100;2024-01-15T09:34:08;-1.40;99.90
14119;DHT22;7138;49.246;9.100;2024-01-15T09:36:39;-1.40;99.90
14119;DHT22;7138;49.246;9.100;2024-01-15T09:39:06;-1.40;99.90
14119;DHT22;7138;49.246;9.100;2024-01-15T09:41:34;-1.40;99.90
14119;DHT22;7138;49.246;9.100;2024-01-15T09:44:00;-1.40;99.90
14119;DHT22;7138;49.246;9.100;2024-01-15T09:46:28;-1.40;99.90
14119;DHT22;7138;49.246;9.100;2024-01-15T09:48:55;-1.30;99.90
14119;DHT22;7138;49.246;9.100;2024-01-15T09:51:21;-1.30;99.90
14119;DHT22;7138;49.246;9.100;2024-01-15T09:53:47;-1.30;99.90
14119;DHT22;7138;49.246;9.100;2024-01-15T09:56:15;-1.20;99.90
14119;DHT22;7138;49.246;9.100;2024-01-15T09:58:41;-1.20;99.90
14119;DHT22;7138;49.246;9.100;2024-01-15T10:01:08;-1.20;99.90
14119;DHT22;7138;49.246;9.100;2024-01-15T10:03:34;-1.20;99.90
14119;DHT22;7138;49.246;9.100;2024-01-15T10:06:01;-1.10;99.90
14119;DHT22;7138;49.246;9.100;2024-01-15T10:08:28;-1.10;99.90
14119;DHT22;7138;49.246;9.100;2024-01-15T10:10:54;-1.00;99.90
14119;DHT22;7138;49.246;9.100;2024-01-15T10:13:21;-1.00;99.90
14119;DHT22;7138;49.246;9.100;2024-01-15T10:15:47;-0.90;99.90
14119;DHT22;7138;49.246;9.100;2024-01-15T10:18:13;-0.90;99.90
14119;DHT22;7138;49.246;9.100;2024-01-15T10:20:39;-0.90;99.90
14119;DHT22;7138;49.246;9.100;2024-01-15T10:23:07;-0.90;99.90
14119;DHT22;7138;49.246;9.100;2024-01-15T10:25:33;-0.90;99.90
14119;DHT22;7138;49.246;9.100;2024-01-15T10:28:02;-1.00;99.90
14119;DHT22;7138;49.246;9.100;2024-01-15T10:30:29;-1.00;99.90
14119;DHT22;7138;49.246;9.100;2024-01-15T10:32:57;-1.00;99.90
14119;DHT22;7138;49.246;9.100;2024-01-15T10:35:27;-1.00;99.90
14119;DHT22;7138;49.246;9.100;2024-01-15T10:37:54;-1.00;99.90
14119;DHT22;7138;49.246;9.100;2024-01-15T10:40:21;-1.10;99.90
14119;DHT22;7138;49.246;9.100;2024-01-15T10:42:47;-1.10;99.90
14119;DHT22;7138;49.246;9.100;2024-01-15T10:45:13;-1.10;99.90
14119;DHT22;7138;49.246;9.100;2024-01-15T10:47:40;-1.10;99.90
14119;DHT22;7138;49.246;9.100;2024-01-15T10:50:07;-1.00;99.90
14119;DHT22;7138;49.246;9.100;2024-01-15T10:52:34;-0.90;99.90
14119;DHT22;7138;49.246;9.100;2024-01-15T10:55:01;-0.90;99.90
14119;DHT22;7138;49.246;9.100;2024-01-15T10:57:30;-1.00;99.90
14119;DHT22;7138;49.246;9.100;2024-01-15T10:59:56;-1.00;99.90
14119;DHT22;7138;49.246;9.100;2024-01-15T11:02:22;-1.00;99.90
14119;DHT22;7138;49.246;9.100;2024-01-15T11:04:49;-1.00;99.90
14119;DHT22;7138;49.246;9.100;2024-01-15T11:07:15;-1.00;99.90
14119;DHT22;7138;49.246;9.100;2024-01-15T11:09:41;-1.10;99.90
14119;DHT22;7138;49.246;9.100;2024-01-15T11:12:08;-1.10;99.90
14119;DHT22;7138;49.246;9.100;2024-01-15T11:14:38;-1.10;99.90
14119;DHT22;7138;49.246;9.100;2024-01-15T11:17:05;-1.00;99.90
14119;DHT22;7138;49.246;9.100;2024-01-15T11:19:38;-1.00;99.90
14119;DHT22;7138;49.246;9.100;2024-01-15T11:22:07;-1.00;99.90
14119;DHT22;7138;49.246;9.100;2024-01-15T11:24:35;-1.10;99.90
14119;DHT22;7138;49.246;9.100;2024-01-15T11:27:02;-1.00;99.90
14119;DHT22;7138;49.246;9.100;2024-01-15T11:29:30;-1.00;99.90
14119;DHT22;7138;49.246;9.100;2024-01-15T11:32:03;-1.00;99.90
14119;DHT22;7138;49.246;9.100;2024-01-15T11:34:50;-0.90;99.90
14119;DHT22;7138;49.246;9.100;2024-01-15T11:37:17;-0.90;99.90
14119;DHT22;7138;49.246;9.100;2024-01-15T11:39:44;-0.90;99.90
14119;DHT22;7138;49.246;9.100;2024-01-15T11:42:11;-0.90;99.90
14119;DHT22;7138;49.246;9.100;2024-01-15T11:44:37;-0.80;99.90
14119;DHT22;7138;49.246;9.100;2024-01-15T11:47:06;-0.80;99.90
14119;DHT22;7138;49.246;9.100;2024-01-15T11:52:26;-0.80;99.90
14119;DHT22;7138;49.246;9.100;2024-01-15T11:55:01;-0.80;99.90
14119;DHT22;7138;49.246;9.100;2024-01-15T11:57:40;-0.80;99.90
14119;DHT22;7138;49.246;9.100;2024-01-15T12:00:11;-0.80;99.90
14119;DHT22;7138;49.246;9.100;2024-01-15T12:02:39;-0.90;99.90
14119;DHT22;7138;49.246;9.100;2024-01-15T12:05:07;-0.80;99.90
14119;DHT22;7138;49.246;9.100;2024-01-15T12:07:33;-0.80;99.90
14119;DHT22;7138;49.246;9.100;2024-01-15T12:10:00;-0.80;99.90
14119;DHT22;7138;49.246;9.100;2024-01-15T12:12:33;-0.90;99.90
14119;DHT22;7138;49.246;9.100;2024-01-15T12:15:08;-0.90;99.90
14119;DHT22;7138;49.246;9.100;2024-01-15T12:17:34;-0.80;99.90
14119;DHT22;7138;49.246;9.100;2024-01-15T12:20:02;-0.70;99.90
14119;DHT22;7138;49.246;9.100;2024-01-15T12:22:28;-0.70;99.90
14119;DHT22;7138;49.246;9.100;2024-01-15T12:24:54;-0.70;99.90
14119;DHT22;7138;49.246;9.100;2024-01-15T12:27:20;-0.70;99.90
14119;DHT22;7138;49.246;9.100;2024-01-15T12:29:46;-0.60;99.90
14119;DHT22;7138;49.246;9.100;2024-01-15T12:32:12;-0.70;99.90
14119;DHT22;7138;49.246;9.100;2024-01-15T12:34:38;-0.60;99.90
14119;DHT22;7138;49.246;9.100;2024-01-15T12:37:07;-0.60;99.90
14119;DHT22;7138;49.246;9.100;2024-01-15T12:39:34;-0.50;99.90
14119;DHT22;7138;49.246;9.100;2024-01-15T12:42:01;-0.50;99.90
14119;DHT22;7138;49.246;9.100;2024-01-15T12:44:28;-0.50;99.90
14119;DHT22;7138;49.246;9.100;2024-01-15T12:46:54;-0.30;99.90
14119;DHT22;7138;49.246;9.100;2024-01-15T12:49:21;-0.40;99.90
14119;DHT22;7138;49.246;9.100;2024-01-15T12:51:52;-0.40;99.90
14119;DHT22;7138;49.246;9.100;2024-01-15T12:54:20;-0.40;99.90
14119;DHT22;7138;49.246;9.100;2024-01-15T12:56:46;-0.30;99.90
14119;DHT22;7138;49.246;9.100;2024-01-15T12:59:12;-0.30;99.90
14119;DHT22;7138;49.246;9.100;2024-01-15T13:01:37;-0.30;99.90
14119;DHT22;7138;49.246;9.100;2024-01-15T13:04:04;-0.30;99.90
14119;DHT22;7138;49.246;9.100;2024-01-15T13:06:34;-0.40;99.90
14119;DHT22;7138;49.246;9.100;2024-01-15T13:09:00;-0.20;99.90
14119;DHT22;7138;49.246;9.100;2024-01-15T13:11:27;-0.20;99.90
14119;DHT22;7138;49.246;9.100;2024-01-15T13:13:53;-0.20;99.90
14119;DHT22;7138;49.246;9.100;2024-01-15T13:16:19;-0.20;99.90
14119;DHT22;7138;49.246;9.100;2024-01-15T13:18:46;-0.20;99.90
14119;DHT22;7138;49.246;9.100;2024-01-15T13:21:12;-0.10;99.90
14119;DHT22;7138;49.246;9.100;2024-01-15T13:23:38;-0.10;99.90
14119;DHT22;7138;49.246;9.100;2024-01-15T13:26:04;-0.10;99.90
14119;DHT22;7138;49.246;9.100;2024-01-15T13:28:32;-0.10;99.90
14119;DHT22;7138;49.246;9.100;2024-01-15T13:30:57;0.00;99.90
14119;DHT22;7138;49.246;9.100;2024-01-15T13:33:23;0.00;99.90
14119;DHT22;7138;49.246;9.100;2024-01-15T13:35:49;0.00;99.90
14119;DHT22;7138;49.246;9.100;2024-01-15T13:38:15;0.10;99.90
14119;DHT22;7138;49.246;9.100;2024-01-15T13:40:41;0.10;99.90
14119;DHT22;7138;49.246;9.100;2024-01-15T13:43:07;0.10;99.90
14119;DHT22;7138;49.246;9.100;2024-01-15T13:45:35;0.10;99.90
14119;DHT22;7138;49.246;9.100;2024-01-15T13:48:03;0.10;99.90
14119;DHT22;7138;49.246;9.100;2024-01-15T13:50:31;0.10;99.90
14119;DHT22;7138;49.246;9.100;2024-01-15T13:52:57;0.10;99.90
14119;DHT22;7138;49.246;9.100;2024-01-15T13:55:23;0.10;99.90
14119;DHT22;7138;49.246;9.100;2024-01-15T13:57:48;0.10;99.90
14119;DHT22;7138;49.246;9.100;2024-01-15T14:00:15;0.10;99.90
14119;DHT22;7138;49.246;9.100;2024-01-15T14:02:45;0.20;99.90
14119;DHT22;7138;49.246;9.100;2024-01-15T14:05:12;0.20;99.90
14119;DHT22;7138;49.246;9.100;2024-01-15T14:07:38;0.10;99.90
14119;DHT22;7138;49.246;9.100;2024-01-15T14:10:05;0.20;99.90
14119;DHT22;7138;49.246;9.100;2024-01-15T14:12:33;0.10;99.90
14119;DHT22;7138;49.246;9.100;2024-01-15T14:14:59;0.10;99.90
14119;DHT22;7138;49.246;9.100;2024-01-15T14:17:26;0.00;99.90
14119;DHT22;7138;49.246;9.100;2024-01-15T14:19:54;-0.10;99.90
14119;DHT22;7138;49.246;9.100;2024-01-15T14:22:20;0.00;99.90
14119;DHT22;7138;49.246;9.100;2024-01-15T14:24:46;0.10;99.90
14119;DHT22;7138;49.246;9.100;2024-01-15T14:27:11;0.10;99.90
14119;DHT22;7138;49.246;9.100;2024-01-15T14:29:37;0.00;99.90
14119;DHT22;7138;49.246;9.100;2024-01-15T14:32:03;0.00;99.90
14119;DHT22;7138;49.246;9.100;2024-01-15T14:34:30;0.00;99.90
14119;DHT22;7138;49.246;9.100;2024-01-15T14:36:57;-0.10;99.90
14119;DHT22;7138;49.246;9.100;2024-01-15T14:39:23;-0.10;99.90
14119;DHT22;7138;49.246;9.100;2024-01-15T14:41:49;-0.20;99.90
14119;DHT22;7138;49.246;9.100;2024-01-15T14:44:15;-0.20;99.90
14119;DHT22;7138;49.246;9.100;2024-01-15T14:46:41;-0.30;99.90
14119;DHT22;7138;49.246;9.100;2024-01-15T14:49:07;-0.30;99.90
14119;DHT22;7138;49.246;9.100;2024-01-15T14:51:34;-0.30;99.90
14119;DHT22;7138;49.246;9.100;2024-01-15T14:54:01;-0.30;99.90
14119;DHT22;7138;49.246;9.100;2024-01-15T14:56:28;-0.20;99.90
14119;DHT22;7138;49.246;9.100;2024-01-15T14:58:54;-0.20;99.90
14119;DHT22;7138;49.246;9.100;2024-01-15T15:01:20;-0.10;99.90
14119;DHT22;7138;49.246;9.100;2024-01-15T15:03:48;-0.10;99.90
14119;DHT22;7138;49.246;9.100;2024-01-15T15:06:14;-0.10;99.90
14119;DHT22;7138;49.246;9.100;2024-01-15T15:08:40;-0.20;99.90
14119;DHT22;7138;49.246;9.100;2024-01-15T15:11:07;-0.20;99.90
14119;DHT22;7138;49.246;9.100;2024-01-15T15:13:33;-0.30;99.90
14119;DHT22;7138;49.246;9.100;2024-01-15T15:16:00;-0.30;99.90
14119;DHT22;7138;49.246;9.100;2024-01-15T15:18:26;-0.30;99.90
14119;DHT22;7138;49.246;9.100;2024-01-15T15:20:52;-0.40;99.90
14119;DHT22;7138;49.246;9.100;2024-01-15T15:23:18;-0.40;99.90
14119;DHT22;7138;49.246;9.100;2024-01-15T15:25:44;-0.40;99.90
14119;DHT22;7138;49.246;9.100;2024-01-15T15:28:11;-0.40;99.90
14119;DHT22;7138;49.246;9.100;2024-01-15T15:30:37;-0.50;99.90
14119;DHT22;7138;49.246;9.100;2024-01-15T15:33:03;-0.50;99.90
14119;DHT22;7138;49.246;9.100;2024-01-15T15:35:30;-0.50;99.90
14119;DHT22;7138;49.246;9.100;2024-01-15T15:37:56;-0.60;99.90
14119;DHT22;7138;49.246;9.100;2024-01-15T15:40:22;-0.70;99.90
14119;DHT22;7138;49.246;9.100;2024-01-15T15:42:49;-0.70;99.90
14119;DHT22;7138;49.246;9.100;2024-01-15T15:45:16;-0.70;99.90